sensor_id;sensor_type;location;lat;lon;timestamp;P1;durP1;ratioP1;P2;durP2;ratioP2
52642;SDS011;38531;53.296;6.614;2023-09-19T00:00:43;508.00;;;201.63;;
52642;SDS011;38531;53.296;6.614;2023-09-19T00:03:12;501.60;;;199.83;;
52642;SDS011;38531;53.296;6.614;2023-09-19T00:09:18;476.27;;;202.93;;
52642;SDS011;38531;53.296;6.614;2023-09-19T00:11:44;472.33;;;201.97;;
52642;SDS011;38531;53.296;6.614;2023-09-19T00:14:12;477.80;;;201.47;;
52642;SDS011;38531;53.296;6.614;2023-09-19T00:16:39;487.03;;;202.43;;
52642;SDS011;38531;53.296;6.614;2023-09-19T00:19:11;484.73;;;202.33;;
52642;SDS011;38531;53.296;6.614;2023-09-19T00:21:38;490.93;;;201.30;;
52642;SDS011;38531;53.296;6.614;2023-09-19T00:24:06;491.60;;;202.17;;
52642;SDS011;38531;53.296;6.614;2023-09-19T00:26:34;483.93;;;202.70;;
52642;SDS011;38531;53.296;6.614;2023-09-19T00:29:00;485.47;;;201.07;;
52642;SDS011;38531;53.296;6.614;2023-09-19T00:31:29;488.00;;;201.83;;
52642;SDS011;38531;53.296;6.614;2023-09-19T00:41:17;498.30;;;203.27;;
52642;SDS011;38531;53.296;6.614;2023-09-19T00:43:43;498.73;;;201.97;;
52642;SDS011;38531;53.296;6.614;2023-09-19T00:46:14;505.80;;;202.30;;
52642;SDS011;38531;53.296;6.614;2023-09-19T00:48:42;505.87;;;201.83;;
52642;SDS011;38531;53.296;6.614;2023-09-19T00:51:08;508.60;;;202.50;;
52642;SDS011;38531;53.296;6.614;2023-09-19T00:53:35;499.03;;;201.70;;
52642;SDS011;38531;53.296;6.614;2023-09-19T00:56:02;490.37;;;200.80;;
52642;SDS011;38531;53.296;6.614;2023-09-19T00:58:32;487.33;;;200.63;;
52642;SDS011;38531;53.296;6.614;2023-09-19T01:01:00;484.53;;;196.97;;
52642;SDS011;38531;53.296;6.614;2023-09-19T01:03:28;498.17;;;201.77;;
52642;SDS011;38531;53.296;6.614;2023-09-19T01:05:54;497.30;;;202.07;;
52642;SDS011;38531;53.296;6.614;2023-09-19T01:08:20;503.93;;;202.40;;
52642;SDS011;38531;53.296;6.614;2023-09-19T01:10:52;496.80;;;201.97;;
52642;SDS011;38531;53.296;6.614;2023-09-19T01:16:11;436.10;;;197.33;;
52642;SDS011;38531;53.296;6.614;2023-09-19T01:22:24;431.03;;;197.23;;
52642;SDS011;38531;53.296;6.614;2023-09-19T01:24:55;427.77;;;197.48;;
52642;SDS011;38531;53.296;6.614;2023-09-19T01:28:20;431.77;;;195.37;;
52642;SDS011;38531;53.296;6.614;2023-09-19T01:30:51;437.60;;;196.37;;
52642;SDS011;38531;53.296;6.614;2023-09-19T01:33:23;441.60;;;197.80;;
52642;SDS011;38531;53.296;6.614;2023-09-19T01:35:52;440.40;;;196.30;;
52642;SDS011;38531;53.296;6.614;2023-09-19T01:38:18;445.27;;;198.63;;
52642;SDS011;38531;53.296;6.614;2023-09-19T01:40:48;443.43;;;197.53;;
52642;SDS011;38531;53.296;6.614;2023-09-19T01:43:33;445.07;;;195.40;;
52642;SDS011;38531;53.296;6.614;2023-09-19T01:46:09;449.27;;;198.77;;
52642;SDS011;38531;53.296;6.614;2023-09-19T01:48:46;449.13;;;198.88;;
52642;SDS011;38531;53.296;6.614;2023-09-19T01:51:33;450.20;;;197.67;;
52642;SDS011;38531;53.296;6.614;2023-09-19T01:54:37;456.40;;;199.40;;
52642;SDS011;38531;53.296;6.614;2023-09-19T02:00:21;454.77;;;200.57;;
52642;SDS011;38531;53.296;6.614;2023-09-19T02:02:48;453.33;;;198.90;;
52642;SDS011;38531;53.296;6.614;2023-09-19T02:05:23;456.03;;;198.40;;
52642;SDS011;38531;53.296;6.614;2023-09-19T02:07:52;454.60;;;198.53;;
52642;SDS011;38531;53.296;6.614;2023-09-19T02:10:19;451.17;;;197.90;;
52642;SDS011;38531;53.296;6.614;2023-09-19T02:12:45;451.67;;;196.67;;
52642;SDS011;38531;53.296;6.614;2023-09-19T02:15:11;454.37;;;196.83;;
52642;SDS011;38531;53.296;6.614;2023-09-19T02:17:37;456.60;;;196.57;;
52642;SDS011;38531;53.296;6.614;2023-09-19T02:20:03;459.67;;;197.23;;
52642;SDS011;38531;53.296;6.614;2023-09-19T02:22:39;458.53;;;197.70;;
52642;SDS011;38531;53.296;6.614;2023-09-19T02:25:08;459.07;;;196.90;;
52642;SDS011;38531;53.296;6.614;2023-09-19T02:27:34;459.23;;;196.37;;
52642;SDS011;38531;53.296;6.614;2023-09-19T02:30:01;464.17;;;198.00;;
52642;SDS011;38531;53.296;6.614;2023-09-19T02:32:30;461.97;;;197.67;;
52642;SDS011;38531;53.296;6.614;2023-09-19T02:34:56;459.07;;;198.53;;
52642;SDS011;38531;53.296;6.614;2023-09-19T02:37:25;462.97;;;199.13;;
52642;SDS011;38531;53.296;6.614;2023-09-19T02:39:51;454.97;;;197.77;;
52642;SDS011;38531;53.296;6.614;2023-09-19T02:42:21;452.67;;;198.10;;
52642;SDS011;38531;53.296;6.614;2023-09-19T02:44:47;445.30;;;197.00;;
52642;SDS011;38531;53.296;6.614;2023-09-19T02:47:13;450.60;;;197.37;;
52642;SDS011;38531;53.296;6.614;2023-09-19T02:49:43;453.83;;;197.77;;
52642;SDS011;38531;53.296;6.614;2023-09-19T02:52:09;449.87;;;196.87;;
52642;SDS011;38531;53.296;6.614;2023-09-19T02:54:36;449.30;;;197.47;;
52642;SDS011;38531;53.296;6.614;2023-09-19T02:57:05;451.67;;;197.00;;
52642;SDS011;38531;53.296;6.614;2023-09-19T02:59:32;451.77;;;197.97;;
52642;SDS011;38531;53.296;6.614;2023-09-19T03:01:58;451.07;;;198.33;;
52642;SDS011;38531;53.296;6.614;2023-09-19T03:04:27;455.40;;;198.67;;
52642;SDS011;38531;53.296;6.614;2023-09-19T03:06:54;460.70;;;197.80;;
52642;SDS011;38531;53.296;6.614;2023-09-19T03:09:25;461.03;;;198.00;;
52642;SDS011;38531;53.296;6.614;2023-09-19T03:11:51;453.33;;;196.87;;
52642;SDS011;38531;53.296;6.614;2023-09-19T03:14:16;452.63;;;197.80;;
52642;SDS011;38531;53.296;6.614;2023-09-19T03:16:45;435.13;;;196.30;;
52642;SDS011;38531;53.296;6.614;2023-09-19T03:19:10;437.13;;;194.90;;
52642;SDS011;38531;53.296;6.614;2023-09-19T03:21:37;437.77;;;196.63;;
52642;SDS011;38531;53.296;6.614;2023-09-19T03:24:04;437.27;;;195.30;;
52642;SDS011;38531;53.296;6.614;2023-09-19T03:26:30;435.20;;;197.13;;
52642;SDS011;38531;53.296;6.614;2023-09-19T03:28:55;432.17;;;194.70;;
52642;SDS011;38531;53.296;6.614;2023-09-19T03:31:21;436.80;;;197.77;;
52642;SDS011;38531;53.296;6.614;2023-09-19T03:33:47;436.27;;;195.70;;
52642;SDS011;38531;53.296;6.614;2023-09-19T03:36:15;434.53;;;196.63;;
52642;SDS011;38531;53.296;6.614;2023-09-19T03:38:41;433.70;;;195.40;;
52642;SDS011;38531;53.296;6.614;2023-09-19T03:41:06;434.47;;;195.40;;
52642;SDS011;38531;53.296;6.614;2023-09-19T03:43:32;433.30;;;194.80;;
52642;SDS011;38531;53.296;6.614;2023-09-19T03:46:01;432.87;;;195.67;;
52642;SDS011;38531;53.296;6.614;2023-09-19T03:48:30;434.43;;;197.13;;
52642;SDS011;38531;53.296;6.614;2023-09-19T03:50:56;432.67;;;195.90;;
52642;SDS011;38531;53.296;6.614;2023-09-19T03:53:22;436.67;;;196.67;;
52642;SDS011;38531;53.296;6.614;2023-09-19T03:55:48;436.27;;;195.43;;
52642;SDS011;38531;53.296;6.614;2023-09-19T03:58:14;434.40;;;194.23;;
52642;SDS011;38531;53.296;6.614;2023-09-19T04:00:39;435.87;;;194.73;;
52642;SDS011;38531;53.296;6.614;2023-09-19T04:03:05;437.07;;;195.43;;
52642;SDS011;38531;53.296;6.614;2023-09-19T04:05:32;436.40;;;195.20;;
52642;SDS011;38531;53.296;6.614;2023-09-19T04:07:58;437.73;;;195.70;;
52642;SDS011;38531;53.296;6.614;2023-09-19T04:10:24;438.60;;;195.37;;
52642;SDS011;38531;53.296;6.614;2023-09-19T04:12:51;439.57;;;196.00;;
52642;SDS011;38531;53.296;6.614;2023-09-19T04:15:20;439.07;;;195.87;;
52642;SDS011;38531;53.296;6.614;2023-09-19T04:17:49;438.50;;;195.00;;
52642;SDS011;38531;53.296;6.614;2023-09-19T04:20:16;440.93;;;195.37;;
52642;SDS011;38531;53.296;6.614;2023-09-19T04:22:43;438.70;;;194.70;;
52642;SDS011;38531;53.296;6.614;2023-09-19T04:25:09;435.07;;;194.47;;
52642;SDS011;38531;53.296;6.614;2023-09-19T04:27:37;433.07;;;195.07;;
52642;SDS011;38531;53.296;6.614;2023-09-19T04:30:08;432.23;;;193.57;;
52642;SDS011;38531;53.296;6.614;2023-09-19T04:32:36;432.17;;;194.57;;
52642;SDS011;38531;53.296;6.614;2023-09-19T04:35:08;431.90;;;195.07;;
52642;SDS011;38531;53.296;6.614;2023-09-19T04:37:39;430.07;;;195.37;;
52642;SDS011;38531;53.296;6.614;2023-09-19T04:40:06;430.57;;;193.80;;
52642;SDS011;38531;53.296;6.614;2023-09-19T04:42:50;432.50;;;195.77;;
52642;SDS011;38531;53.296;6.614;2023-09-19T04:45:22;431.80;;;193.57;;
52642;SDS011;38531;53.296;6.614;2023-09-19T04:47:48;432.40;;;195.47;;
52642;SDS011;38531;53.296;6.614;2023-09-19T04:50:14;429.37;;;193.50;;
52642;SDS011;38531;53.296;6.614;2023-09-19T04:52:42;432.47;;;195.03;;
52642;SDS011;38531;53.296;6.614;2023-09-19T04:55:13;433.37;;;194.03;;
52642;SDS011;38531;53.296;6.614;2023-09-19T04:57:49;431.67;;;194.53;;
52642;SDS011;38531;53.296;6.614;2023-09-19T05:00:19;429.50;;;193.77;;
52642;SDS011;38531;53.296;6.614;2023-09-19T05:02:50;429.90;;;194.90;;
52642;SDS011;38531;53.296;6.614;2023-09-19T05:05:16;430.87;;;194.50;;
52642;SDS011;38531;53.296;6.614;2023-09-19T05:07:44;430.50;;;194.50;;
52642;SDS011;38531;53.296;6.614;2023-09-19T05:10:10;430.70;;;193.90;;
52642;SDS011;38531;53.296;6.614;2023-09-19T05:12:39;428.57;;;195.13;;
52642;SDS011;38531;53.296;6.614;2023-09-19T05:15:06;427.50;;;194.83;;
52642;SDS011;38531;53.296;6.614;2023-09-19T05:17:33;426.50;;;194.13;;
52642;SDS011;38531;53.296;6.614;2023-09-19T05:20:00;427.77;;;194.20;;
52642;SDS011;38531;53.296;6.614;2023-09-19T05:22:31;428.50;;;194.23;;
52642;SDS011;38531;53.296;6.614;2023-09-19T05:25:00;430.07;;;193.37;;
52642;SDS011;38531;53.296;6.614;2023-09-19T05:27:28;429.33;;;193.60;;
52642;SDS011;38531;53.296;6.614;2023-09-19T05:29:54;428.47;;;193.60;;
52642;SDS011;38531;53.296;6.614;2023-09-19T05:32:21;426.73;;;194.37;;
52642;SDS011;38531;53.296;6.614;2023-09-19T05:34:47;431.97;;;194.50;;
52642;SDS011;38531;53.296;6.614;2023-09-19T05:37:13;435.97;;;196.47;;
52642;SDS011;38531;53.296;6.614;2023-09-19T05:39:41;432.17;;;195.47;;
52642;SDS011;38531;53.296;6.614;2023-09-19T05:42:08;429.67;;;193.63;;
52642;SDS011;38531;53.296;6.614;2023-09-19T05:44:34;430.07;;;194.90;;
52642;SDS011;38531;53.296;6.614;2023-09-19T05:47:01;426.50;;;194.83;;
52642;SDS011;38531;53.296;6.614;2023-09-19T05:49:28;422.13;;;192.77;;
52642;SDS011;38531;53.296;6.614;2023-09-19T05:51:56;424.47;;;195.17;;
52642;SDS011;38531;53.296;6.614;2023-09-19T05:54:24;422.50;;;194.13;;
52642;SDS011;38531;53.296;6.614;2023-09-19T05:56:50;420.53;;;193.00;;
52642;SDS011;38531;53.296;6.614;2023-09-19T05:59:18;418.90;;;193.07;;
52642;SDS011;38531;53.296;6.614;2023-09-19T06:01:47;415.97;;;192.17;;
52642;SDS011;38531;53.296;6.614;2023-09-19T06:04:13;413.57;;;190.63;;
52642;SDS011;38531;53.296;6.614;2023-09-19T06:06:38;414.03;;;189.70;;
52642;SDS011;38531;53.296;6.614;2023-09-19T06:09:05;423.33;;;194.80;;
52642;SDS011;38531;53.296;6.614;2023-09-19T06:11:33;421.40;;;193.87;;
52642;SDS011;38531;53.296;6.614;2023-09-19T06:14:03;423.30;;;194.63;;
52642;SDS011;38531;53.296;6.614;2023-09-19T06:16:30;417.27;;;191.97;;
52642;SDS011;38531;53.296;6.614;2023-09-19T06:18:58;421.40;;;194.23;;
52642;SDS011;38531;53.296;6.614;2023-09-19T06:21:27;421.67;;;194.93;;
52642;SDS011;38531;53.296;6.614;2023-09-19T06:23:53;421.20;;;195.10;;
52642;SDS011;38531;53.296;6.614;2023-09-19T06:26:20;418.60;;;192.70;;
52642;SDS011;38531;53.296;6.614;2023-09-19T06:28:45;423.70;;;195.10;;
52642;SDS011;38531;53.296;6.614;2023-09-19T06:31:11;424.27;;;194.40;;
52642;SDS011;38531;53.296;6.614;2023-09-19T06:33:38;424.17;;;193.73;;
52642;SDS011;38531;53.296;6.614;2023-09-19T06:36:07;425.30;;;195.03;;
52642;SDS011;38531;53.296;6.614;2023-09-19T06:38:33;425.90;;;196.07;;
52642;SDS011;38531;53.296;6.614;2023-09-19T06:41:01;422.47;;;193.77;;
52642;SDS011;38531;53.296;6.614;2023-09-19T06:43:32;424.77;;;195.73;;
52642;SDS011;38531;53.296;6.614;2023-09-19T06:45:59;420.53;;;192.77;;
52642;SDS011;38531;53.296;6.614;2023-09-19T06:48:25;420.50;;;192.80;;
52642;SDS011;38531;53.296;6.614;2023-09-19T06:50:55;425.17;;;197.00;;
52642;SDS011;38531;53.296;6.614;2023-09-19T06:53:23;424.43;;;195.27;;
52642;SDS011;38531;53.296;6.614;2023-09-19T06:55:52;424.83;;;194.47;;
52642;SDS011;38531;53.296;6.614;2023-09-19T06:58:18;426.23;;;195.73;;
52642;SDS011;38531;53.296;6.614;2023-09-19T07:00:45;427.50;;;196.10;;
52642;SDS011;38531;53.296;6.614;2023-09-19T07:03:13;425.10;;;195.67;;
52642;SDS011;38531;53.296;6.614;2023-09-19T07:05:41;420.43;;;192.10;;
52642;SDS011;38531;53.296;6.614;2023-09-19T07:08:09;421.97;;;195.00;;
52642;SDS011;38531;53.296;6.614;2023-09-19T07:10:37;421.97;;;194.13;;
52642;SDS011;38531;53.296;6.614;2023-09-19T07:13:09;421.57;;;195.67;;
52642;SDS011;38531;53.296;6.614;2023-09-19T07:15:36;419.43;;;194.70;;
52642;SDS011;38531;53.296;6.614;2023-09-19T07:18:14;423.00;;;195.83;;
52642;SDS011;38531;53.296;6.614;2023-09-19T07:20:45;423.10;;;195.23;;
52642;SDS011;38531;53.296;6.614;2023-09-19T07:23:18;423.67;;;195.13;;
52642;SDS011;38531;53.296;6.614;2023-09-19T07:25:46;424.03;;;195.80;;
52642;SDS011;38531;53.296;6.614;2023-09-19T07:28:13;423.57;;;195.60;;
52642;SDS011;38531;53.296;6.614;2023-09-19T07:30:40;421.57;;;192.87;;
52642;SDS011;38531;53.296;6.614;2023-09-19T07:33:09;413.33;;;193.57;;
52642;SDS011;38531;53.296;6.614;2023-09-19T07:35:38;421.47;;;195.00;;
52642;SDS011;38531;53.296;6.614;2023-09-19T07:38:07;420.60;;;194.90;;
52642;SDS011;38531;53.296;6.614;2023-09-19T07:40:34;430.23;;;196.33;;
52642;SDS011;38531;53.296;6.614;2023-09-19T07:43:02;412.03;;;191.40;;
52642;SDS011;38531;53.296;6.614;2023-09-19T07:45:30;419.67;;;194.97;;
52642;SDS011;38531;53.296;6.614;2023-09-19T07:47:56;421.83;;;195.20;;
52642;SDS011;38531;53.296;6.614;2023-09-19T07:50:22;409.27;;;190.30;;
52642;SDS011;38531;53.296;6.614;2023-09-19T07:52:49;414.53;;;192.70;;
52642;SDS011;38531;53.296;6.614;2023-09-19T07:55:18;412.87;;;192.73;;
52642;SDS011;38531;53.296;6.614;2023-09-19T07:57:48;414.77;;;193.33;;
52642;SDS011;38531;53.296;6.614;2023-09-19T08:00:14;414.67;;;190.40;;
52642;SDS011;38531;53.296;6.614;2023-09-19T08:02:40;417.30;;;192.77;;
52642;SDS011;38531;53.296;6.614;2023-09-19T08:05:07;416.77;;;192.87;;
52642;SDS011;38531;53.296;6.614;2023-09-19T08:07:37;416.53;;;192.27;;
52642;SDS011;38531;53.296;6.614;2023-09-19T08:10:14;420.47;;;195.33;;
52642;SDS011;38531;53.296;6.614;2023-09-19T08:12:41;416.90;;;193.07;;
52642;SDS011;38531;53.296;6.614;2023-09-19T08:15:15;418.83;;;193.83;;
52642;SDS011;38531;53.296;6.614;2023-09-19T08:17:42;406.57;;;188.20;;
52642;SDS011;38531;53.296;6.614;2023-09-19T08:20:09;414.93;;;193.30;;
52642;SDS011;38531;53.296;6.614;2023-09-19T08:22:50;404.67;;;188.53;;
52642;SDS011;38531;53.296;6.614;2023-09-19T08:25:20;408.40;;;188.70;;
52642;SDS011;38531;53.296;6.614;2023-09-19T08:27:51;411.17;;;190.60;;
52642;SDS011;38531;53.296;6.614;2023-09-19T08:30:21;388.13;;;185.27;;
52642;SDS011;38531;53.296;6.614;2023-09-19T08:32:56;374.27;;;183.90;;
52642;SDS011;38531;53.296;6.614;2023-09-19T08:35:29;396.27;;;187.63;;
52642;SDS011;38531;53.296;6.614;2023-09-19T08:37:55;361.07;;;186.40;;
52642;SDS011;38531;53.296;6.614;2023-09-19T08:40:21;352.50;;;183.33;;
52642;SDS011;38531;53.296;6.614;2023-09-19T08:42:48;367.70;;;181.90;;
52642;SDS011;38531;53.296;6.614;2023-09-19T08:45:19;370.17;;;181.77;;
52642;SDS011;38531;53.296;6.614;2023-09-19T08:47:58;370.13;;;182.53;;
52642;SDS011;38531;53.296;6.614;2023-09-19T08:50:27;369.83;;;181.70;;
52642;SDS011;38531;53.296;6.614;2023-09-19T08:52:55;367.43;;;182.83;;
52642;SDS011;38531;53.296;6.614;2023-09-19T08:55:31;365.70;;;182.67;;
52642;SDS011;38531;53.296;6.614;2023-09-19T08:58:03;369.17;;;183.03;;
52642;SDS011;38531;53.296;6.614;2023-09-19T09:00:31;353.47;;;181.83;;
52642;SDS011;38531;53.296;6.614;2023-09-19T09:03:04;358.43;;;181.77;;
52642;SDS011;38531;53.296;6.614;2023-09-19T09:05:34;352.57;;;181.57;;
52642;SDS011;38531;53.296;6.614;2023-09-19T09:08:06;367.87;;;183.33;;
52642;SDS011;38531;53.296;6.614;2023-09-19T09:10:33;371.80;;;184.00;;
52642;SDS011;38531;53.296;6.614;2023-09-19T09:13:00;374.20;;;184.37;;
52642;SDS011;38531;53.296;6.614;2023-09-19T09:15:28;377.83;;;184.47;;
52642;SDS011;38531;53.296;6.614;2023-09-19T09:17:59;379.43;;;184.00;;
52642;SDS011;38531;53.296;6.614;2023-09-19T09:20:25;380.63;;;184.43;;
52642;SDS011;38531;53.296;6.614;2023-09-19T09:22:54;368.03;;;183.30;;
52642;SDS011;38531;53.296;6.614;2023-09-19T09:25:22;376.50;;;185.80;;
52642;SDS011;38531;53.296;6.614;2023-09-19T09:28:10;373.33;;;184.97;;
52642;SDS011;38531;53.296;6.614;2023-09-19T09:30:46;385.40;;;187.40;;
52642;SDS011;38531;53.296;6.614;2023-09-19T09:33:17;390.03;;;187.30;;
52642;SDS011;38531;53.296;6.614;2023-09-19T09:35:56;392.40;;;188.27;;
52642;SDS011;38531;53.296;6.614;2023-09-19T09:38:27;393.90;;;187.47;;
52642;SDS011;38531;53.296;6.614;2023-09-19T09:40:57;385.60;;;187.83;;
52642;SDS011;38531;53.296;6.614;2023-09-19T09:43:34;359.13;;;185.97;;
52642;SDS011;38531;53.296;6.614;2023-09-19T09:46:10;374.13;;;185.97;;
52642;SDS011;38531;53.296;6.614;2023-09-19T09:48:47;359.43;;;185.07;;
52642;SDS011;38531;53.296;6.614;2023-09-19T09:51:40;357.43;;;183.27;;
52642;SDS011;38531;53.296;6.614;2023-09-19T09:54:15;360.33;;;183.70;;
52642;SDS011;38531;53.296;6.614;2023-09-19T09:56:52;363.92;;;183.60;;
52642;SDS011;38531;53.296;6.614;2023-09-19T09:59:48;366.80;;;186.32;;
52642;SDS011;38531;53.296;6.614;2023-09-19T10:02:27;333.27;;;177.38;;
52642;SDS011;38531;53.296;6.614;2023-09-19T10:05:11;346.63;;;184.37;;
52642;SDS011;38531;53.296;6.614;2023-09-19T10:07:53;330.27;;;175.20;;
52642;SDS011;38531;53.296;6.614;2023-09-19T10:13:11;349.60;;;185.40;;
52642;SDS011;38531;53.296;6.614;2023-09-19T10:15:49;348.93;;;183.60;;
52642;SDS011;38531;53.296;6.614;2023-09-19T10:18:25;354.60;;;184.43;;
52642;SDS011;38531;53.296;6.614;2023-09-19T10:20:56;368.10;;;186.70;;
52642;SDS011;38531;53.296;6.614;2023-09-19T10:23:22;355.47;;;185.40;;
52642;SDS011;38531;53.296;6.614;2023-09-19T10:25:51;375.10;;;186.27;;
52642;SDS011;38531;53.296;6.614;2023-09-19T10:28:19;370.80;;;186.40;;
52642;SDS011;38531;53.296;6.614;2023-09-19T10:30:49;384.97;;;187.53;;
52642;SDS011;38531;53.296;6.614;2023-09-19T10:33:24;410.17;;;188.03;;
52642;SDS011;38531;53.296;6.614;2023-09-19T10:36:11;415.10;;;189.30;;
52642;SDS011;38531;53.296;6.614;2023-09-19T10:38:38;419.43;;;189.93;;
52642;SDS011;38531;53.296;6.614;2023-09-19T10:41:08;424.77;;;190.73;;
52642;SDS011;38531;53.296;6.614;2023-09-19T10:43:45;427.33;;;193.90;;
52642;SDS011;38531;53.296;6.614;2023-09-19T10:46:15;417.50;;;192.00;;
52642;SDS011;38531;53.296;6.614;2023-09-19T10:48:44;352.80;;;184.23;;
52642;SDS011;38531;53.296;6.614;2023-09-19T10:51:18;362.63;;;186.80;;
52642;SDS011;38531;53.296;6.614;2023-09-19T10:54:10;365.40;;;186.43;;
52642;SDS011;38531;53.296;6.614;2023-09-19T10:56:50;367.33;;;187.07;;
52642;SDS011;38531;53.296;6.614;2023-09-19T10:59:18;367.47;;;186.77;;
52642;SDS011;38531;53.296;6.614;2023-09-19T11:07:08;371.90;;;186.23;;
52642;SDS011;38531;53.296;6.614;2023-09-19T11:09:56;371.70;;;185.80;;
52642;SDS011;38531;53.296;6.614;2023-09-19T11:26:50;384.33;;;188.10;;
52642;SDS011;38531;53.296;6.614;2023-09-19T11:29:32;380.20;;;188.50;;
52642;SDS011;38531;53.296;6.614;2023-09-19T11:32:01;371.27;;;186.67;;
52642;SDS011;38531;53.296;6.614;2023-09-19T11:34:39;370.43;;;186.27;;
52642;SDS011;38531;53.296;6.614;2023-09-19T11:39:39;378.43;;;187.17;;
52642;SDS011;38531;53.296;6.614;2023-09-19T11:42:44;374.13;;;185.33;;
52642;SDS011;38531;53.296;6.614;2023-09-19T11:48:06;376.57;;;184.77;;
52642;SDS011;38531;53.296;6.614;2023-09-19T11:50:33;382.30;;;185.00;;
52642;SDS011;38531;53.296;6.614;2023-09-19T11:53:01;386.07;;;187.90;;
52642;SDS011;38531;53.296;6.614;2023-09-19T11:55:30;385.27;;;186.00;;
52642;SDS011;38531;53.296;6.614;2023-09-19T11:57:57;388.27;;;186.67;;
52642;SDS011;38531;53.296;6.614;2023-09-19T12:00:27;390.80;;;187.33;;
52642;SDS011;38531;53.296;6.614;2023-09-19T12:02:55;396.20;;;188.30;;
52642;SDS011;38531;53.296;6.614;2023-09-19T12:05:29;394.57;;;186.80;;
52642;SDS011;38531;53.296;6.614;2023-09-19T12:07:58;392.17;;;187.37;;
52642;SDS011;38531;53.296;6.614;2023-09-19T12:10:25;392.60;;;188.23;;
52642;SDS011;38531;53.296;6.614;2023-09-19T12:12:51;389.63;;;186.40;;
52642;SDS011;38531;53.296;6.614;2023-09-19T12:15:26;391.27;;;186.90;;
52642;SDS011;38531;53.296;6.614;2023-09-19T12:17:54;390.13;;;185.87;;
52642;SDS011;38531;53.296;6.614;2023-09-19T12:20:20;391.13;;;186.87;;
52642;SDS011;38531;53.296;6.614;2023-09-19T12:22:46;376.20;;;184.80;;
52642;SDS011;38531;53.296;6.614;2023-09-19T12:25:14;373.00;;;185.47;;
52642;SDS011;38531;53.296;6.614;2023-09-19T12:27:48;371.20;;;184.77;;
52642;SDS011;38531;53.296;6.614;2023-09-19T12:30:18;348.57;;;183.93;;
52642;SDS011;38531;53.296;6.614;2023-09-19T12:32:46;307.93;;;176.03;;
52642;SDS011;38531;53.296;6.614;2023-09-19T12:35:26;324.40;;;179.17;;
52642;SDS011;38531;53.296;6.614;2023-09-19T12:38:02;307.23;;;177.77;;
52642;SDS011;38531;53.296;6.614;2023-09-19T12:40:28;309.93;;;176.87;;
52642;SDS011;38531;53.296;6.614;2023-09-19T12:42:58;310.43;;;176.87;;
52642;SDS011;38531;53.296;6.614;2023-09-19T12:45:27;314.03;;;177.60;;
52642;SDS011;38531;53.296;6.614;2023-09-19T12:51:03;326.17;;;179.30;;
52642;SDS011;38531;53.296;6.614;2023-09-19T12:53:45;339.80;;;182.57;;
52642;SDS011;38531;53.296;6.614;2023-09-19T12:56:14;341.90;;;183.90;;
52642;SDS011;38531;53.296;6.614;2023-09-19T12:58:57;342.60;;;183.77;;
52642;SDS011;38531;53.296;6.614;2023-09-19T13:01:26;342.70;;;182.90;;
52642;SDS011;38531;53.296;6.614;2023-09-19T13:06:38;347.17;;;184.05;;
52642;SDS011;38531;53.296;6.614;2023-09-19T13:09:08;343.60;;;182.97;;
52642;SDS011;38531;53.296;6.614;2023-09-19T13:11:38;343.83;;;182.70;;
52642;SDS011;38531;53.296;6.614;2023-09-19T13:14:23;340.70;;;182.03;;
52642;SDS011;38531;53.296;6.614;2023-09-19T13:25:04;339.63;;;183.73;;
52642;SDS011;38531;53.296;6.614;2023-09-19T13:30:19;331.87;;;181.93;;
52642;SDS011;38531;53.296;6.614;2023-09-19T13:32:47;306.67;;;175.57;;
52642;SDS011;38531;53.296;6.614;2023-09-19T13:35:13;304.23;;;174.77;;
52642;SDS011;38531;53.296;6.614;2023-09-19T13:37:42;304.60;;;175.27;;
52642;SDS011;38531;53.296;6.614;2023-09-19T13:40:12;301.10;;;173.97;;
52642;SDS011;38531;53.296;6.614;2023-09-19T13:42:39;295.13;;;174.27;;
52642;SDS011;38531;53.296;6.614;2023-09-19T13:45:06;301.87;;;173.27;;
52642;SDS011;38531;53.296;6.614;2023-09-19T13:47:33;306.17;;;175.17;;
52642;SDS011;38531;53.296;6.614;2023-09-19T13:49:59;306.67;;;175.17;;
52642;SDS011;38531;53.296;6.614;2023-09-19T13:52:27;310.93;;;175.37;;
52642;SDS011;38531;53.296;6.614;2023-09-19T13:54:56;312.43;;;176.70;;
52642;SDS011;38531;53.296;6.614;2023-09-19T13:57:25;312.73;;;176.30;;
52642;SDS011;38531;53.296;6.614;2023-09-19T13:59:54;312.50;;;174.77;;
52642;SDS011;38531;53.296;6.614;2023-09-19T14:02:21;310.23;;;172.63;;
52642;SDS011;38531;53.296;6.614;2023-09-19T14:04:53;311.53;;;172.60;;
52642;SDS011;38531;53.296;6.614;2023-09-19T14:07:23;308.73;;;170.70;;
52642;SDS011;38531;53.296;6.614;2023-09-19T14:09:55;306.77;;;168.77;;
52642;SDS011;38531;53.296;6.614;2023-09-19T14:12:21;302.50;;;166.10;;
52642;SDS011;38531;53.296;6.614;2023-09-19T14:14:47;319.40;;;177.37;;
52642;SDS011;38531;53.296;6.614;2023-09-19T14:17:16;311.83;;;171.77;;
52642;SDS011;38531;53.296;6.614;2023-09-19T14:19:47;312.57;;;172.70;;
52642;SDS011;38531;53.296;6.614;2023-09-19T14:22:15;322.07;;;178.67;;
52642;SDS011;38531;53.296;6.614;2023-09-19T14:24:41;323.97;;;180.30;;
52642;SDS011;38531;53.296;6.614;2023-09-19T14:27:10;317.53;;;175.33;;
52642;SDS011;38531;53.296;6.614;2023-09-19T14:29:40;306.77;;;167.43;;
52642;SDS011;38531;53.296;6.614;2023-09-19T14:32:06;321.43;;;177.30;;
52642;SDS011;38531;53.296;6.614;2023-09-19T14:34:35;297.93;;;162.13;;
52642;SDS011;38531;53.296;6.614;2023-09-19T14:37:08;321.10;;;176.02;;
52642;SDS011;38531;53.296;6.614;2023-09-19T14:39:38;299.03;;;160.73;;
52642;SDS011;38531;53.296;6.614;2023-09-19T14:42:05;326.50;;;180.33;;
52642;SDS011;38531;53.296;6.614;2023-09-19T14:44:32;302.87;;;162.83;;
52642;SDS011;38531;53.296;6.614;2023-09-19T14:46:58;320.70;;;175.30;;
52642;SDS011;38531;53.296;6.614;2023-09-19T14:49:24;328.87;;;180.87;;
52642;SDS011;38531;53.296;6.614;2023-09-19T14:55:31;329.13;;;181.17;;
52642;SDS011;38531;53.296;6.614;2023-09-19T14:58:00;329.53;;;180.17;;
52642;SDS011;38531;53.296;6.614;2023-09-19T15:00:32;329.90;;;180.57;;
52642;SDS011;38531;53.296;6.614;2023-09-19T15:02:59;329.63;;;178.90;;
52642;SDS011;38531;53.296;6.614;2023-09-19T15:05:25;337.20;;;180.17;;
52642;SDS011;38531;53.296;6.614;2023-09-19T15:07:50;335.87;;;179.70;;
52642;SDS011;38531;53.296;6.614;2023-09-19T15:10:16;338.60;;;179.83;;
52642;SDS011;38531;53.296;6.614;2023-09-19T15:12:43;340.20;;;180.50;;
52642;SDS011;38531;53.296;6.614;2023-09-19T15:15:12;340.40;;;180.87;;
52642;SDS011;38531;53.296;6.614;2023-09-19T15:17:38;338.57;;;179.73;;
52642;SDS011;38531;53.296;6.614;2023-09-19T15:20:04;340.33;;;180.43;;